createdAt,value
2023-04-23T00:04:22.199Z,96558.50
2023-04-23T00:09:26.685Z,96561.50
2023-04-23T00:14:30.535Z,96557.44
2023-04-23T00:19:35.152Z,96556.84
2023-04-23T00:24:39.342Z,96551.53
2023-04-23T00:29:43.510Z,96547.69
2023-04-23T00:34:49.328Z,96547.19
2023-04-23T00:39:52.558Z,96551.25
2023-04-23T00:44:57.124Z,96542.00
2023-04-23T00:50:02.344Z,96546.16
2023-04-23T00:55:06.387Z,96553.22
2023-04-23T01:00:12.598Z,96540.50
2023-04-23T01:05:18.677Z,96537.84
2023-04-23T01:10:22.634Z,96540.44
2023-04-23T01:15:25.944Z,96544.38
2023-04-23T01:20:30.712Z,96553.75
2023-04-23T01:25:36.203Z,96540.47
2023-04-23T01:30:40.216Z,96541.63
2023-04-23T01:35:44.777Z,96541.16
2023-04-23T01:40:49.513Z,96546.09
2023-04-23T01:45:52.963Z,96541.31
2023-04-23T01:50:56.316Z,96536.50
2023-04-23T01:56:02.718Z,96542.63
2023-04-23T02:01:06.107Z,96528.16
2023-04-23T02:06:10.116Z,96531.16
2023-04-23T02:11:14.865Z,96526.50
2023-04-23T02:16:18.516Z,96526.19
2023-04-23T02:21:22.008Z,96528.19
2023-04-23T02:26:27.316Z,96527.16
2023-04-23T02:31:30.621Z,96528.19
2023-04-23T02:36:34.000Z,96530.53
2023-04-23T02:41:38.692Z,96534.84
2023-04-23T02:46:41.912Z,96533.81
2023-04-23T02:51:45.088Z,96533.00
2023-04-23T02:56:49.810Z,96533.50
2023-04-23T03:01:53.999Z,96526.81
2023-04-23T03:06:57.491Z,96536.31
2023-04-23T03:12:02.430Z,96534.81
2023-04-23T03:17:06.487Z,96532.50
2023-04-23T03:22:10.252Z,96545.13
2023-04-23T03:27:15.007Z,96534.16
2023-04-23T03:32:18.498Z,96532.34
2023-04-23T03:37:21.904Z,96539.47
2023-04-23T03:42:27.280Z,96535.59
2023-04-23T03:47:31.198Z,96548.41
2023-04-23T03:52:34.967Z,96544.78
2023-04-23T03:57:40.640Z,96551.94
2023-04-23T04:02:56.360Z,96538.28
2023-04-23T04:08:03.090Z,96541.94
2023-04-23T04:13:07.932Z,96539.94
2023-04-23T04:18:11.102Z,96541.75
2023-04-23T04:23:14.303Z,96542.38
2023-04-23T04:28:19.050Z,96544.69
2023-04-23T04:33:22.156Z,96539.75
2023-04-23T04:38:25.431Z,96554.03
2023-04-23T04:43:30.290Z,96552.50
2023-04-23T04:48:33.612Z,96553.03
2023-04-23T04:53:37.075Z,96554.72
2023-04-23T04:58:41.664Z,96556.06
2023-04-23T05:03:45.063Z,96561.88
2023-04-23T05:08:49.099Z,96561.34
2023-04-23T05:13:53.699Z,96569.00
2023-04-23T05:18:56.884Z,96570.50
2023-04-23T05:24:00.278Z,96585.38
2023-04-23T05:29:05.064Z,96581.78
2023-04-23T05:34:08.203Z,96587.44
2023-04-23T05:39:11.547Z,96608.97
2023-04-23T05:44:16.100Z,96608.97
2023-04-23T05:49:19.497Z,96611.09
2023-04-23T05:54:22.912Z,96615.50
2023-04-23T05:59:27.956Z,96646.06
2023-04-23T06:04:31.928Z,96657.09
2023-04-23T06:09:35.964Z,96669.94
2023-04-23T06:14:40.835Z,96659.25
2023-04-23T06:19:44.457Z,96660.94
2023-04-23T06:24:48.786Z,96644.25
2023-04-23T06:29:54.318Z,96649.72
2023-04-23T06:35:02.060Z,96651.06
2023-04-23T06:40:07.965Z,96658.53
2023-04-23T06:45:15.262Z,96653.13
2023-04-23T06:50:18.667Z,96655.03
2023-04-23T06:55:26.432Z,96645.91
2023-04-23T07:00:31.539Z,96641.91
2023-04-23T07:05:36.475Z,96643.06
2023-04-23T07:10:42.154Z,96633.22
2023-04-23T07:15:49.013Z,96635.75
2023-04-23T07:20:53.535Z,96649.72
2023-04-23T07:25:57.170Z,96657.34
2023-04-23T07:31:03.312Z,96662.13
2023-04-23T07:36:07.208Z,96657.50
2023-04-23T07:41:10.778Z,96658.28
2023-04-23T07:46:15.860Z,96667.22
2023-04-23T07:51:19.266Z,96661.25
2023-04-23T07:56:24.546Z,96661.78
2023-04-23T08:01:29.809Z,96664.22
2023-04-23T08:06:35.637Z,96661.81
2023-04-23T08:11:39.590Z,96664.34
2023-04-23T08:16:44.645Z,96655.66
2023-04-23T08:21:49.191Z,96656.28
2023-04-23T08:26:53.279Z,96653.06
2023-04-23T08:31:58.358Z,96645.97
2023-04-23T08:37:01.759Z,96652.06
2023-04-23T08:42:12.350Z,96647.06
2023-04-23T08:47:20.108Z,96638.38
2023-04-23T08:52:26.018Z,96646.81
2023-04-23T08:57:29.651Z,96648.28
2023-04-23T09:02:35.276Z,96661.88
2023-04-23T09:07:38.966Z,96653.03
2023-04-23T09:12:45.163Z,96641.13
2023-04-23T09:17:51.272Z,96638.78
2023-04-23T09:22:54.613Z,96632.34
2023-04-23T09:28:00.583Z,96624.13
2023-04-23T09:33:07.098Z,96624.09
2023-04-23T09:38:10.878Z,96640.09
2023-04-23T09:43:14.225Z,96650.28
2023-04-23T09:48:19.181Z,96638.75
2023-04-23T09:53:22.428Z,96631.84
2023-04-23T09:58:28.836Z,96635.72
2023-04-23T10:03:33.776Z,96638.22
2023-04-23T10:08:37.543Z,96630.53
2023-04-23T10:13:41.117Z,96623.31
2023-04-23T10:18:47.087Z,96617.28
2023-04-23T10:23:52.765Z,96618.66
2023-04-23T10:28:57.037Z,96612.75
2023-04-23T10:34:06.198Z,96614.31
2023-04-23T10:39:10.521Z,96617.03
2023-04-23T10:44:17.235Z,96612.09
2023-04-23T10:49:24.224Z,96618.09
2023-04-23T10:54:31.543Z,96592.22
2023-04-23T10:59:35.860Z,96590.13
2023-04-23T11:04:46.797Z,96581.22
2023-04-23T11:09:53.740Z,96578.97
2023-04-23T11:14:59.568Z,96582.97
2023-04-23T11:20:16.465Z,96568.19
2023-04-23T11:25:22.623Z,96570.25
2023-04-23T11:30:28.162Z,96565.88
2023-04-23T11:35:40.052Z,96560.53
2023-04-23T11:40:43.955Z,96561.88
2023-04-23T11:45:48.008Z,96535.91
2023-04-23T11:50:54.129Z,96530.19
2023-04-23T11:55:57.697Z,96534.34
2023-04-23T12:01:02.366Z,96528.75
2023-04-23T12:06:08.372Z,96513.13
2023-04-23T12:11:15.248Z,96501.41
2023-04-23T12:16:18.860Z,96511.31
2023-04-23T12:21:26.175Z,96507.00
2023-04-23T12:26:32.044Z,96506.16
2023-04-23T12:31:39.070Z,96501.53
2023-04-23T12:36:47.949Z,96488.50
2023-04-23T12:41:53.549Z,96489.50
2023-04-23T12:46:58.487Z,96494.34
2023-04-23T12:52:05.792Z,96497.56
2023-04-23T12:57:14.377Z,96485.97
2023-04-23T13:02:18.286Z,96481.75
2023-04-23T13:07:23.952Z,96478.03
2023-04-23T13:12:28.490Z,96470.34
2023-04-23T13:17:32.220Z,96449.28
2023-04-23T13:22:37.729Z,96441.53
2023-04-23T13:27:42.658Z,96438.81
2023-04-23T13:32:47.188Z,96429.28
2023-04-23T13:37:52.373Z,96412.63
2023-04-23T13:48:01.952Z,96386.31
2023-04-23T13:53:08.745Z,96385.69
2023-04-23T13:58:12.477Z,96379.63
2023-04-23T14:03:16.478Z,96379.38
2023-04-23T14:08:22.055Z,96373.47
2023-04-23T14:13:25.641Z,96363.09
2023-04-23T14:18:30.556Z,96358.72
2023-04-23T14:23:57.444Z,96351.44
2023-04-23T14:29:10.944Z,96343.56
2023-04-23T14:34:14.543Z,96337.31
2023-04-23T14:39:21.936Z,96331.63
2023-04-23T14:44:26.744Z,96335.97
2023-04-23T14:49:35.530Z,96313.19
2023-04-23T14:54:42.361Z,96323.97
2023-04-23T14:59:46.991Z,96320.34
2023-04-23T15:04:50.675Z,96316.78
2023-04-23T15:09:55.665Z,96312.03
2023-04-23T15:14:59.204Z,96297.56
2023-04-23T15:20:03.362Z,96283.16
2023-04-23T15:25:09.347Z,96284.72
2023-04-23T15:30:13.546Z,96278.09
2023-04-23T15:35:19.952Z,96271.13
2023-04-23T15:40:26.693Z,96272.19
2023-04-23T15:45:29.963Z,96268.25
2023-04-23T15:50:33.951Z,96267.72
2023-04-23T15:55:40.154Z,96257.13
2023-04-23T16:00:43.684Z,96259.72
2023-04-23T16:05:48.405Z,96260.19
2023-04-23T16:10:53.504Z,96245.25
2023-04-23T16:15:57.084Z,96234.91
2023-04-23T16:21:01.687Z,96236.56
2023-04-23T16:26:09.363Z,96229.94
2023-04-23T16:31:14.059Z,96229.31
2023-04-23T16:36:19.009Z,96219.44
2023-04-23T16:41:23.995Z,96212.22
2023-04-23T16:46:31.247Z,96216.25
2023-04-23T16:51:35.020Z,96209.69
2023-04-23T16:56:39.881Z,96211.13
2023-04-23T17:01:43.651Z,96218.69
2023-04-23T17:06:46.962Z,96201.56
2023-04-23T17:11:52.498Z,96200.25
2023-04-23T17:16:56.277Z,96193.69
2023-04-23T17:22:00.269Z,96197.56
2023-04-23T17:27:05.041Z,96190.31
2023-04-23T17:32:09.059Z,96178.31
2023-04-23T17:37:14.879Z,96178.91
2023-04-23T17:42:20.537Z,96176.56
2023-04-23T17:47:25.285Z,96171.19
2023-04-23T17:52:28.944Z,96168.56
2023-04-23T17:57:34.656Z,96165.69
2023-04-23T18:02:40.449Z,96170.22
2023-04-23T18:07:46.423Z,96172.19
2023-04-23T18:12:51.818Z,96165.53
2023-04-23T18:17:55.916Z,96165.94
2023-04-23T18:23:00.047Z,96152.72
2023-04-23T18:28:05.314Z,96161.03
2023-04-23T18:33:14.745Z,96150.19
2023-04-23T18:38:25.918Z,96156.34
2023-04-23T18:43:31.916Z,96161.16
2023-04-23T18:48:47.994Z,96159.34
2023-04-23T18:53:51.602Z,96159.53
2023-04-23T18:58:57.517Z,96162.75
2023-04-23T19:04:02.102Z,96168.47
2023-04-23T19:09:05.892Z,96174.97
2023-04-23T19:14:10.710Z,96164.19
2023-04-23T19:19:14.923Z,96165.31
2023-04-23T19:24:18.822Z,96158.22
2023-04-23T19:29:25.020Z,96157.09
2023-04-23T19:34:28.584Z,96150.13
2023-04-23T19:39:32.248Z,96137.53
2023-04-23T19:44:37.546Z,96135.16
2023-04-23T19:49:41.542Z,96135.00
2023-04-23T19:54:49.051Z,96129.19
2023-04-23T19:59:53.705Z,96137.03
2023-04-23T20:04:57.129Z,96138.75
2023-04-23T20:10:00.949Z,96132.34
2023-04-23T20:15:06.355Z,96134.59
2023-04-23T20:20:11.087Z,96135.56
2023-04-23T20:25:15.266Z,96142.44
2023-04-23T20:30:20.787Z,96167.16
2023-04-23T20:35:24.212Z,96212.25
2023-04-23T20:40:27.866Z,96224.75
2023-04-23T20:45:32.600Z,96233.41
2023-04-23T20:50:36.029Z,96230.06
2023-04-23T20:55:39.243Z,96247.16
2023-04-23T21:00:44.942Z,96227.06
2023-04-23T21:05:49.216Z,96210.31
2023-04-23T21:10:54.509Z,96190.25
2023-04-23T21:15:59.272Z,96174.31
2023-04-23T21:21:03.061Z,96175.50
2023-04-23T21:26:07.756Z,96170.69
2023-04-23T21:31:16.092Z,96174.50
2023-04-23T21:36:19.590Z,96178.16
2023-04-23T21:41:23.224Z,96178.78
2023-04-23T21:46:28.251Z,96177.94
2023-04-23T21:51:36.057Z,96180.78
2023-04-23T21:56:39.810Z,96173.81
2023-04-23T22:01:45.310Z,96174.91
2023-04-23T22:06:48.927Z,96168.25
2023-04-23T22:12:01.985Z,96177.19
2023-04-23T22:17:09.332Z,96180.59
2023-04-23T22:22:13.130Z,96174.09
2023-04-23T22:27:16.467Z,96177.72
2023-04-23T22:32:21.241Z,96178.84
2023-04-23T22:37:24.804Z,96181.81
2023-04-23T22:42:28.003Z,96191.56
2023-04-23T22:47:32.723Z,96167.56
2023-04-23T22:52:35.908Z,96178.44
2023-04-23T22:57:40.145Z,96160.25
2023-04-23T23:02:44.877Z,96161.56
2023-04-23T23:07:48.141Z,96150.16
2023-04-23T23:12:51.377Z,96137.47
2023-04-23T23:17:56.115Z,96145.88
2023-04-23T23:22:59.306Z,96149.66
2023-04-23T23:28:02.476Z,96151.78
2023-04-23T23:33:07.241Z,96142.13
2023-04-23T23:38:10.771Z,96152.25
2023-04-23T23:43:13.975Z,96154.28
2023-04-23T23:48:18.927Z,96141.91
2023-04-23T23:53:22.357Z,96134.50
2023-04-23T23:58:25.406Z,96142.75
